Terminal Aerodrome Forecast
Issued by NWS

Home | Current Version | Previous Version | Text Only | Print | Product List | Glossary Off
Versions: 1 2 3 4 5 6 7 8 9 10 11 12 13 14 15 16 17 18 19 20 21 22 23 24 25 26 27 28 29 30 31 32 33 34 35 36 37 38 39

000
FTUS43 KGRB 241100
TAFRHI
TAF
KRHI 241140Z 2412/2512 13006KT 6SM BR SCT006 SCT012
      TEMPO 2412/2414 4SM BR BKN006 OVC012
     FM241500 13009KT 6SM BR BKN015
      TEMPO 2415/2419 SCT015
     FM241900 15007KT P6SM SCT018 SCT030
     FM242200 13007KT P6SM BKN070 OVC100
     FM250100 12003KT 5SM BR SCT009 BKN060 PROB30 2505/2509 1SM TSRA
      BKN012CB=

USA.gov is the U.S. government's official web portal to all federal, state and local government web resources and services.